x

Gulf Of Maine - 78 Nm East Of Portsmouth, Nh (44005) Weather Station

5:50 - Tue 23rd Sep 2014 All times are EDT. -4 hours from GMT.

  • Wind
    20mph
  • Aire Temp 54°f
  • Sea Pressure 1020.4mb
  • Gulf Of Maine - 78 Nm East Of Portsmouth, Nh
  • Gulf Of Maine - 78 Nm East Of Portsmouth, Nh

More Historic Weather Station data

Upgrade to MSW Pro to gain access to the past 30 days of data for over 8000 Wavebouys and Weather Stations around the globe.

Join Pro

Comparision Forecast

View Surf forecast
   
mar 09/23 5:50  -   -   -  20
mph
1020.4mb - 54f
4:50 6ft 10s 6s 20 25 mph 1019.8mb 57f 54f
3:50 6ft 10s 6s 18 20 mph 1018.7mb 57f 54f
2:50 7ft 11s 6s 18 25 mph 1018mb 57f 55f
1:50 6.5ft 9s 6s 18 20 mph 1017.8mb 57f 55f
12:50 7.5ft 11s 6s 20 25 mph 1016.8mb 58f 55f
lun 09/22 11:50 7ft 11s 6s 20 25 mph 1016mb 58f 55f
10:50 6.5ft 11s 6s 20 25 mph 1015.1mb 58f 56f
9:50 7ft 11s 7s 20 25 mph 1013.8mb 58f 57f
8:50 6.5ft 9s 6s 13 18 mph 1012.5mb 58f 59f
7:50 7ft 11s 6s 20 25 mph 1011.2mb 59f 62f
6:50  -   -   -  13 16 mph 1010.2mb 59f 62f
5:50  -   -   -  20 25 mph 1008.7mb 60f 63f
4:50 10ft 11s 7s 22 29 mph 1007.3mb 60f 63f
3:50  -   -   -  25 29 mph 1006mb 61f 63f
2:50 11.5ft 11s 8s 25 34 mph 1004.8mb 61f 64f
1:50 13ft 11s 8s 25 29 mph 1003.6mb 61f 65f
12:50 10.5ft 11s 8s 22 27 mph 1003.3mb 61f 64f
11:50 10ft 11s 7s 25 29 mph 1003mb 62f 64f
10:50 6ft 11s 6s 25 29 mph 1002.2mb 62f 64f
9:50 5ft 10s 5s 25 29 mph 1002mb 62f 64f
8:50 4.5ft 8s 5s 22 27 mph 1001.2mb 62f 65f
6:50 3.5ft 7s 5s 18 20 mph 1000mb 61f 64f
5:50 3ft 7s 5s 11
mph
999.2mb 60f 63f
4:50 3ft 8s 5s 11 16 mph 998.7mb 60f 62f
3:50 3ft 8s 5s 7 9 mph 998mb 60f 63f
2:50 3ft 8s 5s 4 7 mph 997.9mb 61f 62f
1:50 3ft 8s 5s 4
mph
998.7mb 62f 62f
12:50 3ft 5s 5s 4
mph
998.4mb 62f 61f
dom 09/21 11:50 3.5ft 5s 5s 2 4 mph 999.2mb 62f 62f
10:50 3.5ft 5s 5s 4
mph
1000.3mb 63f 63f
9:50 3ft 6s 5s 4 7 mph 1001.9mb 63f 64f
8:50 3ft 5s 5s 9 11 mph 1002.5mb 63f 64f
7:50 2.5ft 5s 5s 11
mph
1003.6mb 63f 64f
6:50 2.5ft 11s 5s 11 13 mph 1004.4mb 63f 64f
5:50 2.5ft 8s 5s 9
mph
1005.9mb 63f 64f
4:50 2.5ft 4s 4s 11 13 mph 1007mb 63f 65f
3:50 2.5ft 4s 5s 11 13 mph 1007.7mb 63f 65f
2:50 2.5ft 4s 4s 13 16 mph 1008.8mb 62f 65f
1:50 3.5ft 5s 4s 11 13 mph 1010mb 62f 65f
12:50 3.5ft 5s 4s 13 16 mph 1011.3mb 62f 65f
11:50 3.5ft 5s 4s 16 20 mph 1012.6mb 61f 65f
10:50 3.5ft 4s 4s 18 20 mph 1013.1mb 61f 65f
9:50 3ft 5s 4s 16 18 mph 1013.9mb 61f 65f
8:50 3.5ft 5s 4s 13 16 mph 1014.5mb 61f 64f
7:50 3.5ft 4s 4s 13 16 mph 1014.5mb 61f 64f
6:50 3ft 7s 5s 16 18 mph 1014.9mb 61f 64f
5:50 3ft 5s 4s 16 18 mph 1015.2mb 61f 64f
4:50 3.5ft 5s 4s 16 18 mph 1015.9mb 60f 64f
3:50 3.5ft 4s 4s 16 18 mph 1016.5mb 61f 63f
2:50 3.5ft 5s 4s 13 18 mph 1017.2mb 61f 63f
1:50 3.5ft 6s 4s 18 22 mph 1017.8mb 61f 63f
12:50 3.5ft 6s 5s 18 22 mph 1018.3mb 61f 64f
sáb 09/20 11:50 4.5ft 6s 5s 16 20 mph 1018.9mb 61f 63f
10:50 4.5ft 5s 4s 18 22 mph 1019.6mb 61f 64f
9:50 4.5ft 6s 5s 20 25 mph 1020.1mb 61f 64f
8:50 4.5ft 5s 5s 20 25 mph 1020.4mb 60f 64f
7:50 5ft 6s 5s 20 25 mph 1020.8mb 60f 63f
6:50 5ft 5s 5s 20 22 mph 1020.9mb 60f 63f
5:50 5ft 5s 5s 22 27 mph 1021.1mb 60f 62f
4:50 5ft 6s 5s 22 27 mph 1021.6mb 59f 62f
3:50 5.5ft 5s 5s 22 27 mph 1022.3mb 59f 61f
2:50 5ft 5s 5s 22 27 mph 1022.8mb 60f 61f
1:50 4.5ft 5s 5s 22 25 mph 1023.3mb 60f 59f
12:50 4.5ft 5s 5s 18 22 mph 1024.5mb 60f 59f
11:50 4ft 5s 4s 20 22 mph 1025.6mb 60f 58f
10:50 3.5ft 4s 4s 20 25 mph 1026.2mb 61f 58f
9:50 3.5ft 4s 4s 18 25 mph 1026.9mb 61f 57f
8:50 3.5ft 4s 4s 18 22 mph 1027.3mb 62f 57f
7:50 3ft 4s 4s 18 25 mph 1027.6mb 62f 57f
6:50 2.5ft 9s 4s 16 20 mph 1028mb 61f 56f
5:50 2.5ft 9s 4s 16 20 mph 1028.5mb 61f 56f
4:50 2.5ft 10s 4s 16 20 mph 1028.7mb 60f 55f
3:50 2.5ft 9s 4s 16 18 mph 1028.5mb 58f 55f
2:50 2ft 9s 5s 13 18 mph 1029.3mb 57f 54f
1:50 2.5ft 8s 5s 11 13 mph 1029.6mb 57f 53f
12:50 2ft 9s 5s 13 16 mph 1029.5mb 57f 53f
vie 09/19 11:50 2ft 8s 6s 9 11 mph 1030mb 57f 52f
10:50 2ft 9s 6s 7 9 mph 1030.5mb 56f 52f
9:50 2.5ft 8s 5s 7 9 mph 1030.2mb 58f 52f
8:50 2.5ft 10s 5s 7 9 mph 1030.2mb 59f 52f
7:50 3ft 7s 5s 2 4 mph 1030.3mb 60f 51f
6:50 3.5ft 6s 5s 2 4 mph 1029.6mb 60f 51f
5:50 3.5ft 7s 5s  -  4 mph 1029.6mb 60f 53f
4:50 4ft 8s 6s 2 4 mph 1029.5mb 61f 52f
3:50 3.5ft 7s 6s 4 7 mph 1029.3mb 62f 50f
2:50 3.5ft 8s 5s 9 11 mph 1029.6mb 61f 50f
1:50 3.5ft 6s 5s 7 11 mph 1029.5mb 61f 49f
12:50 4ft 6s 5s 11 18 mph 1029.2mb 59f 49f
11:50 3.5ft 6s 4s 11 16 mph 1028.7mb 59f 49f
10:50 4.5ft 6s 5s 16 20 mph 1028.2mb 59f 49f